createdAt,value
2023-05-11T00:02:22.353Z,47.96
2023-05-11T00:04:49.175Z,48.08
2023-05-11T00:07:15.950Z,48.24
2023-05-11T00:09:42.775Z,48.13
2023-05-11T00:12:09.628Z,48.02
2023-05-11T00:14:36.435Z,48.10
2023-05-11T00:17:03.270Z,47.86
2023-05-11T00:19:31.525Z,47.93
2023-05-11T00:21:59.166Z,48.14
2023-05-11T00:24:26.245Z,47.94
2023-05-11T00:26:53.092Z,48.07
2023-05-11T00:29:20.328Z,47.99
2023-05-11T00:31:48.067Z,47.93
2023-05-11T00:34:16.508Z,48.21
2023-05-11T00:36:43.575Z,48.27
2023-05-11T00:39:11.843Z,48.12
2023-05-11T00:41:39.465Z,48.25
2023-05-11T00:44:06.586Z,48.02
2023-05-11T00:46:33.798Z,48.25
2023-05-11T00:49:00.849Z,48.26
2023-05-11T00:51:27.851Z,48.21
2023-05-11T00:53:54.763Z,48.15
2023-05-11T00:56:22.238Z,48.38
2023-05-11T00:58:49.265Z,48.22
2023-05-11T01:01:18.013Z,48.31
2023-05-11T01:03:46.365Z,48.25
2023-05-11T01:06:42.327Z,48.41
2023-05-11T01:09:34.498Z,48.36
2023-05-11T01:12:23.913Z,48.23
2023-05-11T01:15:06.730Z,48.34
2023-05-11T01:17:54.936Z,48.12
2023-05-11T01:20:27.821Z,48.24
2023-05-11T01:23:44.895Z,48.54
2023-05-11T01:26:47.260Z,48.50
2023-05-11T01:29:48.087Z,48.42
2023-05-11T01:32:20.097Z,48.64
2023-05-11T01:34:48.887Z,48.42
2023-05-11T01:37:21.771Z,48.44
2023-05-11T01:39:59.223Z,48.42
2023-05-11T01:42:32.844Z,48.40
2023-05-11T01:45:01.759Z,48.48
2023-05-11T01:47:30.419Z,48.68
2023-05-11T01:49:59.077Z,48.60
2023-05-11T01:52:27.145Z,48.83
2023-05-11T01:54:56.139Z,49.02
2023-05-11T01:57:24.487Z,48.71
2023-05-11T01:59:53.757Z,48.80
2023-05-11T02:02:21.703Z,48.77
2023-05-11T02:04:50.137Z,48.91
2023-05-11T02:07:18.504Z,48.90
2023-05-11T02:09:47.419Z,49.04
2023-05-11T02:12:16.578Z,48.95
2023-05-11T02:14:44.567Z,48.82
2023-05-11T02:17:11.655Z,49.01
2023-05-11T02:19:39.435Z,49.02
2023-05-11T02:22:08.035Z,49.20
2023-05-11T02:24:35.805Z,49.24
2023-05-11T02:27:02.970Z,48.99
2023-05-11T02:29:29.965Z,49.37
2023-05-11T02:32:11.398Z,49.25
2023-05-11T02:34:45.578Z,49.38
2023-05-11T02:37:22.741Z,49.29
2023-05-11T02:39:59.870Z,49.45
2023-05-11T02:42:28.155Z,49.17
2023-05-11T02:45:09.411Z,49.20
2023-05-11T02:47:53.224Z,49.19
2023-05-11T02:50:25.901Z,49.17
2023-05-11T02:52:57.210Z,49.12
2023-05-11T02:55:24.751Z,49.12
2023-05-11T02:57:52.019Z,49.17
2023-05-11T03:00:19.374Z,49.42
2023-05-11T03:02:47.156Z,49.39
2023-05-11T03:05:20.451Z,49.42
2023-05-11T03:07:47.272Z,49.71
2023-05-11T03:10:14.937Z,49.71
2023-05-11T03:12:45.051Z,49.91
2023-05-11T03:15:15.527Z,49.77
2023-05-11T03:17:46.777Z,49.78
2023-05-11T03:20:16.845Z,49.75
2023-05-11T03:22:46.519Z,49.70
2023-05-11T03:25:15.606Z,49.55
2023-05-11T03:27:44.635Z,49.54
2023-05-11T03:30:13.958Z,49.41
2023-05-11T03:32:44.656Z,49.34
2023-05-11T03:35:13.025Z,49.34
2023-05-11T03:37:40.803Z,49.35
2023-05-11T03:40:09.436Z,49.31
2023-05-11T03:42:46.858Z,49.39
2023-05-11T03:45:17.635Z,49.54
2023-05-11T03:47:46.767Z,49.71
2023-05-11T03:50:14.519Z,49.97
2023-05-11T03:52:41.991Z,49.98
2023-05-11T03:55:09.693Z,50.19
2023-05-11T03:57:36.863Z,50.20
2023-05-11T04:00:04.447Z,50.06
2023-05-11T04:02:31.357Z,50.21
2023-05-11T04:04:58.235Z,50.17
2023-05-11T04:07:25.502Z,50.24
2023-05-11T04:09:52.302Z,50.17
2023-05-11T04:12:19.109Z,50.08
2023-05-11T04:14:46.023Z,50.05
2023-05-11T04:17:12.834Z,50.09
2023-05-11T04:19:39.672Z,50.08
2023-05-11T04:22:06.483Z,50.15
2023-05-11T04:24:33.264Z,50.06
2023-05-11T04:27:00.056Z,49.92
2023-05-11T04:29:26.858Z,50.20
2023-05-11T04:31:53.766Z,50.14
2023-05-11T04:34:21.589Z,50.40
2023-05-11T04:36:49.868Z,50.37
2023-05-11T04:39:17.816Z,50.47
2023-05-11T04:41:45.457Z,50.35
2023-05-11T04:44:12.454Z,50.35
2023-05-11T04:46:39.386Z,50.38
2023-05-11T04:49:07.513Z,50.41
2023-05-11T04:51:36.546Z,50.34
2023-05-11T04:54:03.536Z,50.40
2023-05-11T04:56:30.412Z,50.40
2023-05-11T04:58:57.258Z,50.59
2023-05-11T05:01:24.146Z,50.70
2023-05-11T05:03:51.168Z,50.94
2023-05-11T05:06:18.077Z,50.92
2023-05-11T05:08:44.873Z,50.75
2023-05-11T05:11:11.682Z,50.92
2023-05-11T05:13:38.484Z,51.04
2023-05-11T05:16:05.808Z,50.91
2023-05-11T05:18:33.666Z,50.90
2023-05-11T05:21:00.907Z,50.92
2023-05-11T05:23:27.749Z,50.74
2023-05-11T05:25:54.637Z,50.58
2023-05-11T05:28:22.335Z,50.60
2023-05-11T05:30:49.197Z,50.48
2023-05-11T05:33:16.042Z,50.63
2023-05-11T05:35:43.977Z,50.46
2023-05-11T05:38:12.227Z,50.49
2023-05-11T05:40:39.730Z,50.58
2023-05-11T05:43:07.676Z,50.47
2023-05-11T05:45:34.653Z,50.54
2023-05-11T05:48:02.911Z,50.44
2023-05-11T05:50:31.140Z,50.63
2023-05-11T05:52:57.939Z,50.73
2023-05-11T05:55:26.786Z,50.48
2023-05-11T05:57:54.970Z,50.48
2023-05-11T06:00:21.863Z,50.54
2023-05-11T06:02:57.064Z,50.56
2023-05-11T06:05:26.483Z,50.55
2023-05-11T06:08:05.988Z,50.61
2023-05-11T06:10:37.035Z,50.66
2023-05-11T06:13:04.032Z,50.59
2023-05-11T06:15:31.043Z,50.50
2023-05-11T06:18:05.269Z,50.40
2023-05-11T06:20:32.595Z,50.42
2023-05-11T06:22:59.497Z,50.33
2023-05-11T06:25:27.705Z,50.43
2023-05-11T06:27:54.621Z,50.36
2023-05-11T06:30:21.769Z,50.03
2023-05-11T06:32:50.904Z,50.16
2023-05-11T06:35:20.750Z,50.17
2023-05-11T06:37:47.857Z,50.14
2023-05-11T06:40:18.009Z,50.26
2023-05-11T06:42:45.007Z,50.06
2023-05-11T06:45:12.965Z,50.13
2023-05-11T06:47:42.434Z,50.10
2023-05-11T06:50:09.888Z,50.11
2023-05-11T06:52:38.055Z,50.09
2023-05-11T06:55:05.731Z,49.89
2023-05-11T06:57:32.533Z,49.96
2023-05-11T06:59:59.417Z,49.97
2023-05-11T07:02:26.319Z,49.78
2023-05-11T07:04:53.258Z,49.63
2023-05-11T07:07:20.209Z,49.35
2023-05-11T07:09:47.040Z,49.36
2023-05-11T07:12:13.892Z,49.57
2023-05-11T07:14:40.771Z,49.32
2023-05-11T07:17:07.967Z,49.13
2023-05-11T07:19:34.853Z,49.39
2023-05-11T07:22:02.048Z,49.26
2023-05-11T07:24:29.002Z,49.22
2023-05-11T07:26:57.258Z,49.25
2023-05-11T07:29:24.508Z,49.25
2023-05-11T07:31:51.631Z,49.09
2023-05-11T07:34:18.567Z,49.02
2023-05-11T07:36:46.381Z,49.10
2023-05-11T07:39:13.359Z,49.07
2023-05-11T07:41:40.188Z,49.09
2023-05-11T07:44:07.045Z,48.97
2023-05-11T07:46:33.882Z,48.98
2023-05-11T07:49:14.358Z,48.95
2023-05-11T07:51:42.493Z,48.98
2023-05-11T07:54:09.544Z,48.85
2023-05-11T07:56:36.388Z,48.65
2023-05-11T07:59:03.210Z,48.48
2023-05-11T08:01:30.207Z,48.79
2023-05-11T08:03:57.090Z,48.70
2023-05-11T08:06:24.030Z,48.80
2023-05-11T08:08:51.391Z,48.98
2023-05-11T08:11:18.211Z,48.88
2023-05-11T08:13:45.116Z,48.66
2023-05-11T08:16:12.401Z,48.51
2023-05-11T08:18:39.315Z,48.50
2023-05-11T08:21:07.530Z,48.60
2023-05-11T08:23:34.442Z,48.69
2023-05-11T08:26:01.311Z,48.38
2023-05-11T08:28:28.112Z,48.45
2023-05-11T08:30:59.150Z,48.54
2023-05-11T08:33:37.377Z,48.62
2023-05-11T08:36:06.763Z,48.42
2023-05-11T08:38:35.092Z,48.00
2023-05-11T08:41:02.570Z,47.71
2023-05-11T08:43:30.326Z,47.45
2023-05-11T08:46:01.552Z,47.69
2023-05-11T08:48:29.247Z,48.03
2023-05-11T08:50:56.874Z,48.07
2023-05-11T08:53:23.855Z,48.39
2023-05-11T08:55:51.702Z,47.95
2023-05-11T08:58:22.066Z,47.86
2023-05-11T09:00:52.872Z,48.23
2023-05-11T09:03:20.021Z,48.17
2023-05-11T09:05:47.746Z,48.13
2023-05-11T09:08:18.288Z,48.46
2023-05-11T09:10:45.364Z,48.70
2023-05-11T09:13:12.286Z,48.42
2023-05-11T09:15:39.195Z,48.36
2023-05-11T09:18:06.897Z,48.29
2023-05-11T09:20:35.122Z,47.80
2023-05-11T09:23:02.504Z,47.74
2023-05-11T09:25:34.742Z,47.73
2023-05-11T09:28:01.564Z,47.47
2023-05-11T09:30:28.510Z,47.67
2023-05-11T09:32:58.527Z,47.77
2023-05-11T09:35:33.288Z,47.98
2023-05-11T09:38:09.374Z,48.00
2023-05-11T09:40:45.078Z,47.97
2023-05-11T09:43:30.315Z,47.80
2023-05-11T09:46:06.951Z,47.88
2023-05-11T09:48:35.101Z,47.83
2023-05-11T09:51:06.951Z,48.07
2023-05-11T09:53:43.899Z,48.22
2023-05-11T09:56:15.505Z,48.02
2023-05-11T09:58:47.398Z,48.16
2023-05-11T10:01:15.298Z,47.97
2023-05-11T10:03:52.026Z,48.23
2023-05-11T10:06:20.586Z,48.15
2023-05-11T10:08:48.847Z,48.20
2023-05-11T10:11:15.763Z,48.25
2023-05-11T10:13:45.608Z,48.55
2023-05-11T10:16:15.582Z,48.65
2023-05-11T10:18:43.646Z,48.62
2023-05-11T10:21:11.909Z,48.23
2023-05-11T10:23:39.315Z,48.55
2023-05-11T10:26:06.337Z,48.10
2023-05-11T10:28:33.804Z,48.03
2023-05-11T10:31:04.429Z,48.38
2023-05-11T10:33:32.826Z,48.38
2023-05-11T10:36:00.323Z,48.06
2023-05-11T10:38:27.832Z,48.15
2023-05-11T10:41:04.635Z,48.02
2023-05-11T10:43:54.116Z,48.04
2023-05-11T10:47:06.164Z,48.42
2023-05-11T10:49:39.974Z,48.22
2023-05-11T10:52:39.792Z,48.17
2023-05-11T10:55:25.923Z,48.39
2023-05-11T10:58:09.401Z,48.71
2023-05-11T11:01:38.764Z,48.68
2023-05-11T11:04:11.749Z,48.43
2023-05-11T11:06:43.648Z,47.84
2023-05-11T11:09:16.461Z,47.83
2023-05-11T11:11:50.141Z,48.00
2023-05-11T11:14:19.101Z,47.56
2023-05-11T11:17:17.214Z,47.97
2023-05-11T11:19:44.218Z,47.86
2023-05-11T11:22:36.040Z,48.04
2023-05-11T11:25:07.876Z,48.09
2023-05-11T11:27:41.000Z,47.47
2023-05-11T11:30:26.635Z,47.22
2023-05-11T11:33:10.209Z,47.62
2023-05-11T11:35:42.865Z,47.55
2023-05-11T11:38:13.253Z,47.39
2023-05-11T11:43:19.836Z,46.92
2023-05-11T11:45:54.052Z,46.67
2023-05-11T11:48:37.505Z,46.39
2023-05-11T11:51:07.228Z,46.37
2023-05-11T11:53:40.856Z,46.89
2023-05-11T11:56:28.565Z,46.86
2023-05-11T11:59:00.818Z,46.41
2023-05-11T12:01:39.518Z,46.66
2023-05-11T12:04:34.382Z,46.43
2023-05-11T12:07:03.389Z,46.54
2023-05-11T12:09:30.281Z,45.75
2023-05-11T12:11:58.400Z,45.68
2023-05-11T12:14:26.301Z,46.02
2023-05-11T12:17:13.301Z,45.96
2023-05-11T12:19:41.996Z,45.88
2023-05-11T12:22:10.701Z,45.95
2023-05-11T12:24:39.163Z,45.61
2023-05-11T12:27:06.363Z,45.66
2023-05-11T12:29:33.241Z,45.10
2023-05-11T12:32:00.491Z,44.90
2023-05-11T12:34:27.385Z,44.69
2023-05-11T12:36:55.142Z,44.53
2023-05-11T12:39:25.818Z,44.31
2023-05-11T12:41:56.696Z,43.86
2023-05-11T12:44:26.064Z,43.42
2023-05-11T12:46:54.056Z,43.50
2023-05-11T12:49:26.747Z,43.62
2023-05-11T12:51:59.935Z,43.31
2023-05-11T12:54:37.552Z,42.86
2023-05-11T12:57:21.910Z,42.94
2023-05-11T12:59:48.858Z,42.14
2023-05-11T13:02:22.052Z,41.74
2023-05-11T13:04:49.203Z,41.68
2023-05-11T13:07:26.412Z,41.40
2023-05-11T13:10:00.859Z,41.71
2023-05-11T13:12:31.916Z,41.94
2023-05-11T13:15:08.813Z,41.92
2023-05-11T13:17:38.592Z,42.34
2023-05-11T13:20:18.031Z,41.97
2023-05-11T13:22:45.742Z,42.11
2023-05-11T13:25:14.379Z,42.22
2023-05-11T13:27:41.209Z,42.25
2023-05-11T13:30:09.296Z,41.49
2023-05-11T13:32:36.960Z,41.51
2023-05-11T13:35:05.053Z,41.76
2023-05-11T13:37:32.247Z,41.50
2023-05-11T13:39:59.163Z,41.51
2023-05-11T13:42:25.985Z,40.99
2023-05-11T13:44:52.820Z,40.44
2023-05-11T13:47:19.624Z,40.79
2023-05-11T13:49:46.677Z,40.38
2023-05-11T13:52:13.646Z,40.20
2023-05-11T13:54:40.454Z,40.20
2023-05-11T13:57:07.434Z,39.51
2023-05-11T13:59:34.278Z,40.21
2023-05-11T14:02:01.191Z,39.81
2023-05-11T14:04:28.072Z,40.27
2023-05-11T14:06:54.936Z,40.14
2023-05-11T14:09:23.241Z,40.01
2023-05-11T14:11:50.595Z,40.38
2023-05-11T14:14:17.801Z,40.61
2023-05-11T14:16:44.723Z,40.20
2023-05-11T14:19:11.718Z,39.80
2023-05-11T14:21:38.817Z,39.28
2023-05-11T14:24:12.079Z,38.89
2023-05-11T14:26:40.302Z,39.14
2023-05-11T14:29:07.676Z,38.65
2023-05-11T14:31:35.923Z,38.60
2023-05-11T14:34:06.089Z,38.30
2023-05-11T14:36:33.142Z,38.22
2023-05-11T14:38:59.937Z,37.78
2023-05-11T14:41:26.998Z,37.51
2023-05-11T14:43:53.818Z,37.51
2023-05-11T14:46:21.544Z,37.33
2023-05-11T14:48:48.438Z,37.59
2023-05-11T14:51:15.271Z,37.24
2023-05-11T14:53:42.149Z,37.32
2023-05-11T14:56:09.029Z,37.25
2023-05-11T14:58:35.861Z,37.56
2023-05-11T15:01:03.870Z,37.21
2023-05-11T15:03:30.967Z,37.07
2023-05-11T15:05:57.808Z,37.40
2023-05-11T15:08:30.075Z,36.90
2023-05-11T15:10:57.992Z,37.40
2023-05-11T15:13:24.911Z,37.38
2023-05-11T15:15:52.030Z,37.46
2023-05-11T15:18:19.496Z,37.12
2023-05-11T15:20:46.822Z,36.95
2023-05-11T15:23:16.596Z,36.90
2023-05-11T15:25:44.637Z,37.04
2023-05-11T15:28:11.866Z,36.55
2023-05-11T15:30:38.849Z,37.06
2023-05-11T15:33:06.621Z,36.87
2023-05-11T15:35:36.618Z,36.94
2023-05-11T15:38:03.804Z,37.52
2023-05-11T15:40:30.716Z,37.39
2023-05-11T15:45:26.345Z,37.20
2023-05-11T15:47:54.152Z,37.08
2023-05-11T15:50:21.834Z,36.91
2023-05-11T15:52:48.906Z,36.86
2023-05-11T15:55:16.019Z,36.73
2023-05-11T15:57:43.053Z,36.79
2023-05-11T16:00:10.754Z,36.52
2023-05-11T16:02:37.773Z,37.07
2023-05-11T16:05:05.258Z,36.55
2023-05-11T16:07:32.375Z,36.90
2023-05-11T16:09:59.301Z,36.78
2023-05-11T16:12:26.137Z,36.88
2023-05-11T16:14:53.001Z,37.11
2023-05-11T16:17:20.206Z,36.86
2023-05-11T16:19:47.350Z,37.05
2023-05-11T16:22:14.213Z,37.08
2023-05-11T16:24:41.015Z,37.06
2023-05-11T16:27:07.913Z,37.47
2023-05-11T16:29:35.270Z,37.12
2023-05-11T16:32:02.183Z,36.75
2023-05-11T16:34:29.077Z,36.83
2023-05-11T16:36:57.970Z,36.98
2023-05-11T16:39:25.676Z,36.87
2023-05-11T16:41:52.519Z,37.08
2023-05-11T16:44:19.348Z,36.21
2023-05-11T16:46:46.283Z,36.63
2023-05-11T16:49:13.177Z,36.39
2023-05-11T16:51:40.003Z,36.49
2023-05-11T16:54:07.095Z,36.69
2023-05-11T16:56:33.916Z,36.26
2023-05-11T16:59:00.719Z,35.94
2023-05-11T17:01:28.371Z,36.11
2023-05-11T17:03:55.505Z,35.68
2023-05-11T17:06:24.100Z,35.33
2023-05-11T17:08:51.245Z,35.55
2023-05-11T17:11:18.089Z,35.30
2023-05-11T17:13:44.912Z,35.26
2023-05-11T17:16:11.921Z,35.25
2023-05-11T17:18:38.854Z,35.11
2023-05-11T17:21:05.948Z,35.35
2023-05-11T17:23:33.823Z,34.92
2023-05-11T17:26:10.091Z,34.89
2023-05-11T17:28:38.116Z,34.88
2023-05-11T17:31:13.247Z,35.10
2023-05-11T17:33:41.527Z,35.16
2023-05-11T17:36:09.644Z,35.46
2023-05-11T17:38:36.811Z,35.64
2023-05-11T17:41:05.364Z,35.69
2023-05-11T17:43:36.368Z,35.92
2023-05-11T17:46:04.235Z,35.95
2023-05-11T17:48:31.970Z,36.47
2023-05-11T17:50:58.939Z,36.74
2023-05-11T17:53:25.941Z,36.92
2023-05-11T17:55:52.999Z,37.77
2023-05-11T17:58:19.958Z,37.95
2023-05-11T18:00:49.192Z,38.10
2023-05-11T18:03:16.847Z,38.11
2023-05-11T18:05:48.481Z,38.36
2023-05-11T18:08:16.162Z,38.34
2023-05-11T18:10:42.976Z,38.99
2023-05-11T18:13:10.096Z,38.83
2023-05-11T18:15:37.703Z,39.00
2023-05-11T18:18:04.929Z,39.59
2023-05-11T18:20:31.785Z,39.70
2023-05-11T18:22:58.874Z,39.63
2023-05-11T18:25:27.816Z,39.79
2023-05-11T18:27:54.977Z,40.05
2023-05-11T18:30:22.063Z,40.21
2023-05-11T18:32:49.063Z,40.70
2023-05-11T18:35:16.825Z,40.60
2023-05-11T18:37:43.652Z,40.81
2023-05-11T18:40:11.167Z,40.99
2023-05-11T18:42:38.068Z,41.05
2023-05-11T18:45:06.131Z,41.20
2023-05-11T18:47:35.471Z,41.25
2023-05-11T18:50:04.042Z,41.35
2023-05-11T18:52:30.849Z,41.65
2023-05-11T18:54:58.436Z,42.10
2023-05-11T18:57:25.291Z,42.09
2023-05-11T18:59:52.525Z,42.03
2023-05-11T19:02:19.512Z,42.01
2023-05-11T19:04:46.297Z,42.30
2023-05-11T19:07:14.465Z,42.14
2023-05-11T19:09:41.320Z,42.17
2023-05-11T19:12:08.822Z,42.19
2023-05-11T19:14:35.739Z,42.25
2023-05-11T19:17:04.008Z,42.34
2023-05-11T19:19:31.125Z,42.33
2023-05-11T19:21:59.189Z,42.33
2023-05-11T19:24:28.247Z,42.31
2023-05-11T19:27:06.706Z,42.43
2023-05-11T19:29:35.163Z,42.73
2023-05-11T19:32:02.397Z,42.55
2023-05-11T19:34:30.535Z,42.70
2023-05-11T19:36:57.321Z,43.00
2023-05-11T19:39:24.715Z,43.05
2023-05-11T19:41:51.580Z,43.06
2023-05-11T19:44:18.816Z,43.17
2023-05-11T19:46:46.841Z,43.43
2023-05-11T19:49:15.178Z,43.60
2023-05-11T19:51:43.091Z,43.58
2023-05-11T19:54:10.970Z,43.83
2023-05-11T19:56:38.120Z,43.71
2023-05-11T19:59:04.936Z,44.02
2023-05-11T20:01:32.057Z,43.92
2023-05-11T20:03:59.439Z,44.24
2023-05-11T20:06:26.712Z,44.23
2023-05-11T20:08:54.078Z,44.03
2023-05-11T20:11:22.003Z,44.19
2023-05-11T20:13:49.147Z,44.18
2023-05-11T20:16:16.031Z,44.30
2023-05-11T20:18:43.078Z,44.43
2023-05-11T20:21:09.916Z,44.51
2023-05-11T20:23:37.702Z,44.62
2023-05-11T20:26:04.841Z,44.71
2023-05-11T20:28:31.891Z,44.85
2023-05-11T20:30:59.062Z,45.00
2023-05-11T20:35:55.672Z,45.05
2023-05-11T20:38:22.527Z,45.13
2023-05-11T20:40:49.532Z,45.20
2023-05-11T20:43:16.900Z,45.36
2023-05-11T20:45:44.061Z,45.39
2023-05-11T20:48:11.075Z,45.41
2023-05-11T20:50:39.132Z,45.31
2023-05-11T20:53:05.984Z,45.68
2023-05-11T20:55:32.974Z,45.71
2023-05-11T20:57:59.859Z,45.86
2023-05-11T21:00:26.743Z,45.70
2023-05-11T21:02:53.728Z,46.15
2023-05-11T21:05:20.871Z,46.09
2023-05-11T21:07:47.788Z,46.32
2023-05-11T21:10:14.599Z,46.28
2023-05-11T21:12:41.900Z,46.42
2023-05-11T21:15:17.173Z,46.49
2023-05-11T21:17:44.006Z,46.54
2023-05-11T21:20:12.196Z,46.59
2023-05-11T21:22:39.241Z,46.74
2023-05-11T21:25:06.633Z,46.68
2023-05-11T21:27:33.422Z,46.76
2023-05-11T21:30:00.281Z,46.80
2023-05-11T21:32:27.152Z,46.90
2023-05-11T21:34:54.056Z,46.87
2023-05-11T21:37:21.082Z,46.84
2023-05-11T21:39:48.323Z,46.91
2023-05-11T21:42:15.470Z,46.78
2023-05-11T21:44:42.332Z,46.92
2023-05-11T21:47:09.140Z,46.94
2023-05-11T21:49:36.621Z,46.99
2023-05-11T21:52:03.760Z,47.18
2023-05-11T21:54:30.647Z,47.17
2023-05-11T21:56:57.476Z,47.14
2023-05-11T21:59:26.783Z,47.25
2023-05-11T22:01:56.588Z,46.98
2023-05-11T22:04:23.615Z,47.50
2023-05-11T22:06:50.414Z,47.53
2023-05-11T22:09:17.432Z,47.65
2023-05-11T22:11:44.215Z,47.45
2023-05-11T22:14:11.119Z,47.75
2023-05-11T22:16:37.990Z,47.69
2023-05-11T22:19:04.984Z,47.60
2023-05-11T22:21:31.875Z,47.64
2023-05-11T22:23:59.099Z,47.67
2023-05-11T22:26:26.733Z,47.70
2023-05-11T22:28:53.555Z,47.68
2023-05-11T22:31:20.592Z,47.78
2023-05-11T22:33:47.423Z,47.76
2023-05-11T22:36:14.280Z,47.82
2023-05-11T22:38:41.078Z,47.90
2023-05-11T22:41:07.973Z,47.81
2023-05-11T22:43:35.145Z,47.87
2023-05-11T22:46:03.491Z,48.05
2023-05-11T22:48:30.438Z,48.19
2023-05-11T22:50:57.227Z,47.95
2023-05-11T22:53:24.076Z,48.26
2023-05-11T22:55:50.921Z,48.07
2023-05-11T22:58:17.725Z,48.23
2023-05-11T23:00:45.854Z,48.29
2023-05-11T23:03:12.803Z,48.30
2023-05-11T23:05:39.729Z,48.36
2023-05-11T23:08:06.588Z,48.41
2023-05-11T23:10:33.470Z,48.19
2023-05-11T23:13:00.285Z,48.51
2023-05-11T23:15:27.104Z,48.54
2023-05-11T23:17:53.919Z,48.54
2023-05-11T23:20:21.044Z,48.51
2023-05-11T23:22:48.114Z,48.43
2023-05-11T23:25:15.599Z,48.48
2023-05-11T23:27:42.453Z,48.35
2023-05-11T23:30:10.040Z,48.59
2023-05-11T23:32:36.881Z,48.84
2023-05-11T23:35:03.895Z,48.95
2023-05-11T23:37:30.697Z,48.85
2023-05-11T23:39:57.516Z,48.97
2023-05-11T23:42:24.317Z,49.25
2023-05-11T23:44:51.185Z,49.33
2023-05-11T23:47:18.097Z,49.35
2023-05-11T23:49:44.974Z,49.41
2023-05-11T23:52:11.755Z,49.38
2023-05-11T23:54:38.683Z,49.30
2023-05-11T23:57:05.640Z,49.51
2023-05-11T23:59:32.452Z,49.61
